Gulf Bridge — A8JM5 — position and weather

sailwx.info

Track history (hours):
 
Tides and Currents Weather Stations Pressure Air Temp Water Temp Dewpoint Dewpoint Depression Visibility Wind Speed Wind Dir Waves Ship Positions

Gulf Bridge

Last reported at 2014-Jul-18 03:15 UTC. Time now 2014-Jul-23 01:13 UTC.
Position S 36°43' E 176°03'.

Length 213 m; beam 32.2 m; draft 11.5 m.

Type: Ship. MMSI: 636091115.

Date/timePositionNaut miles runAvg speedWind from/ knotsBaromVisibWave heightAir tempDewpointWater temp
2014-Jul-18 03:15S 36°43' E 176°03'1115.3
2014-Jul-18 02:31S 36°33' E 175°57'3014.3
2014-Jul-18 00:24S 36°24' E 175°21'910.3
2014-Jul-17 23:33S 36°28' E 175°11'1111.2
2014-Jul-17 22:33S 36°35' E 175°00'1111.5
2014-Jul-17 21:33S 36°44' E 174°51'8 7.6
2014-Jul-17 20:33S 36°51' E 174°47'0 0.0
2014-Jul-17 19:32S 36°51' E 174°47'0 0.0
2014-Jul-17 18:32S 36°51' E 174°47'0 0.0
2014-Jul-17 17:26S 36°51' E 174°47'0 0.0
2014-Jul-17 16:32S 36°51' E 174°47'0 0.0
2014-Jul-17 15:32S 36°51' E 174°47'0 0.0
2014-Jul-17 14:32S 36°51' E 174°47'0 0.0
2014-Jul-17 13:14S 36°51' E 174°47'0 0.0
2014-Jul-17 12:26S 36°51' E 174°47'0 0.0
2014-Jul-17 11:32S 36°51' E 174°47'0 0.0
2014-Jul-17 10:32S 36°51' E 174°47'0 0.0
2014-Jul-17 09:32S 36°51' E 174°47'0 0.0
2014-Jul-17 08:32S 36°51' E 174°47'0 0.1
2014-Jul-17 07:33S 36°51' E 174°47'7 6.6
2014-Jul-17 06:33S 36°45' E 174°50'7 6.9
2014-Jul-17 05:33S 36°39' E 174°55'10 9.8
2014-Jul-17 04:33S 36°30' E 174°59'10 9.8
2014-Jul-17 03:33S 36°20' E 174°59'10 9.5
2014-Jul-17 02:30S 36°10' E 174°58'  
2014-Jul-11 04:30S 39°20' E 147°39'1515.1
2014-Jul-11 03:30S 39°19' E 147°19'1515.4
2014-Jul-11 02:32S 39°18' E 147°00'1717.5
2014-Jul-11 01:32S 39°18' E 146°38'1717.5
2014-Jul-11 00:33S 39°17' E 146°15'1717.2
2014-Jul-10 23:33S 39°08' E 145°56'1717.3
2014-Jul-10 22:33S 38°59' E 145°37'  
Track history (hours):
 
Tides and Currents Weather Stations Pressure Air Temp Water Temp Dewpoint Dewpoint Depression Visibility Wind Speed Wind Dir Waves Ship Positions

Gulf Bridge

Last reported at 2014-Jul-18 03:15 UTC. Time now 2014-Jul-23 01:13 UTC.
Position S 36°43' E 176°03'.

Length 213 m; beam 32.2 m; draft 11.5 m.

Type: Ship. MMSI: 636091115.

Date/timePositionNaut miles runAvg speedWind from/ knotsBaromVisibWave heightAir tempDewpointWater temp
2014-Jul-18 03:15S 36°43' E 176°03'1115.3
2014-Jul-18 02:31S 36°33' E 175°57'3014.3
2014-Jul-18 00:24S 36°24' E 175°21'910.3
2014-Jul-17 23:33S 36°28' E 175°11'1111.2
2014-Jul-17 22:33S 36°35' E 175°00'1111.5
2014-Jul-17 21:33S 36°44' E 174°51'8 7.6
2014-Jul-17 20:33S 36°51' E 174°47'0 0.0
2014-Jul-17 19:32S 36°51' E 174°47'0 0.0
2014-Jul-17 18:32S 36°51' E 174°47'0 0.0
2014-Jul-17 17:26S 36°51' E 174°47'0 0.0
2014-Jul-17 16:32S 36°51' E 174°47'0 0.0
2014-Jul-17 15:32S 36°51' E 174°47'0 0.0
2014-Jul-17 14:32S 36°51' E 174°47'0 0.0
2014-Jul-17 13:14S 36°51' E 174°47'0 0.0
2014-Jul-17 12:26S 36°51' E 174°47'0 0.0
2014-Jul-17 11:32S 36°51' E 174°47'0 0.0
2014-Jul-17 10:32S 36°51' E 174°47'0 0.0
2014-Jul-17 09:32S 36°51' E 174°47'0 0.0
2014-Jul-17 08:32S 36°51' E 174°47'0 0.1
2014-Jul-17 07:33S 36°51' E 174°47'7 6.6
2014-Jul-17 06:33S 36°45' E 174°50'7 6.9
2014-Jul-17 05:33S 36°39' E 174°55'10 9.8
2014-Jul-17 04:33S 36°30' E 174°59'10 9.8
2014-Jul-17 03:33S 36°20' E 174°59'10 9.5
2014-Jul-17 02:30S 36°10' E 174°58'  
2014-Jul-11 04:30S 39°20' E 147°39'1515.1
2014-Jul-11 03:30S 39°19' E 147°19'1515.4
2014-Jul-11 02:32S 39°18' E 147°00'1717.5
2014-Jul-11 01:32S 39°18' E 146°38'1717.5
2014-Jul-11 00:33S 39°17' E 146°15'1717.2
2014-Jul-10 23:33S 39°08' E 145°56'1717.3
2014-Jul-10 22:33S 38°59' E 145°37'  

Dump ship's entire track history